createdAt,value
2018-10-18T00:01:01.635Z,86.80
2018-10-18T00:03:29.350Z,86.30
2018-10-18T00:05:56.967Z,87.00
2018-10-18T00:08:24.643Z,87.30
2018-10-18T00:10:52.263Z,87.50
2018-10-18T00:13:19.930Z,87.90
2018-10-18T00:15:47.823Z,88.20
2018-10-18T00:18:15.630Z,87.90
2018-10-18T00:20:43.131Z,88.30
2018-10-18T00:23:10.861Z,89.20
2018-10-18T00:25:38.430Z,89.30
2018-10-18T00:28:06.125Z,89.00
2018-10-18T00:30:33.719Z,89.00
2018-10-18T00:33:01.395Z,89.80
2018-10-18T00:35:28.983Z,90.10
2018-10-18T00:37:56.701Z,90.30
2018-10-18T00:40:24.245Z,90.30
2018-10-18T00:42:51.927Z,90.10
2018-10-18T00:45:19.458Z,90.10
2018-10-18T00:47:47.262Z,90.40
2018-10-18T00:50:14.914Z,90.60
2018-10-18T00:52:42.471Z,90.60
2018-10-18T00:55:11.003Z,90.90
2018-10-18T00:57:39.310Z,91.00
2018-10-18T01:00:08.099Z,90.90
2018-10-18T01:02:35.715Z,90.90
2018-10-18T01:05:03.430Z,90.70
2018-10-18T01:07:31.136Z,90.70
2018-10-18T01:09:58.745Z,90.30
2018-10-18T01:12:26.495Z,89.50
2018-10-18T01:14:54.007Z,90.10
2018-10-18T01:17:21.634Z,90.10
2018-10-18T01:19:49.187Z,90.30
2018-10-18T01:22:16.852Z,90.30
2018-10-18T01:24:44.415Z,90.90
2018-10-18T01:27:12.047Z,91.40
2018-10-18T01:29:39.740Z,91.60
2018-10-18T01:32:07.495Z,91.70
2018-10-18T01:34:34.995Z,91.50
2018-10-18T01:37:02.641Z,91.90
2018-10-18T01:39:30.291Z,92.30
2018-10-18T01:41:57.934Z,92.40
2018-10-18T01:44:25.545Z,92.60
2018-10-18T01:46:53.131Z,92.30
2018-10-18T01:49:20.771Z,92.20
2018-10-18T01:51:48.342Z,92.20
2018-10-18T01:54:16.035Z,92.20
2018-10-18T01:56:43.627Z,91.60
2018-10-18T01:59:11.279Z,91.30
2018-10-18T02:01:38.886Z,91.40
2018-10-18T02:04:06.597Z,91.50
2018-10-18T02:06:34.247Z,91.60
2018-10-18T02:09:01.941Z,91.40
2018-10-18T02:11:29.663Z,91.40
2018-10-18T02:13:57.379Z,91.20
2018-10-18T02:16:24.965Z,91.40
2018-10-18T02:18:52.666Z,91.40
2018-10-18T02:21:20.206Z,91.50
2018-10-18T02:23:47.844Z,91.60
2018-10-18T02:26:15.419Z,91.50
2018-10-18T02:28:43.073Z,91.80
2018-10-18T02:31:10.699Z,91.90
2018-10-18T02:33:38.267Z,92.00
2018-10-18T02:36:05.960Z,92.30
2018-10-18T02:38:33.703Z,92.20
2018-10-18T02:41:01.306Z,92.20
2018-10-18T02:43:28.916Z,92.20
2018-10-18T02:45:56.511Z,92.20
2018-10-18T02:48:24.147Z,92.40
2018-10-18T02:50:51.779Z,92.60
2018-10-18T02:53:19.427Z,92.50
2018-10-18T02:55:47.019Z,92.50
2018-10-18T02:58:14.644Z,92.40
2018-10-18T03:00:42.281Z,92.40
2018-10-18T03:03:09.963Z,92.50
2018-10-18T03:05:37.549Z,92.50
2018-10-18T03:08:05.249Z,92.50
2018-10-18T03:10:32.878Z,92.50
2018-10-18T03:13:00.647Z,92.40
2018-10-18T03:15:28.324Z,92.40
2018-10-18T03:17:56.019Z,92.60
2018-10-18T03:20:23.621Z,92.50
2018-10-18T03:22:51.234Z,92.60
2018-10-18T03:25:18.895Z,92.90
2018-10-18T03:27:46.507Z,92.20
2018-10-18T03:30:14.180Z,92.10
2018-10-18T03:32:41.743Z,92.20
2018-10-18T03:35:09.595Z,92.00
2018-10-18T03:37:37.465Z,92.10
2018-10-18T03:40:05.720Z,91.90
2018-10-18T03:42:33.319Z,92.00
2018-10-18T03:45:00.962Z,92.20
2018-10-18T03:47:28.561Z,92.10
2018-10-18T03:49:56.174Z,92.10
2018-10-18T03:52:23.760Z,92.10
2018-10-18T03:54:51.363Z,92.30
2018-10-18T03:57:18.970Z,92.50
2018-10-18T03:59:46.628Z,92.40
2018-10-18T04:02:14.240Z,92.50
2018-10-18T04:04:41.895Z,92.60
2018-10-18T04:07:09.772Z,92.50
2018-10-18T04:09:37.395Z,92.50
2018-10-18T04:12:05.863Z,92.50
2018-10-18T04:14:33.541Z,92.40
2018-10-18T04:17:01.195Z,92.70
2018-10-18T04:19:28.875Z,92.80
2018-10-18T04:21:56.482Z,93.10
2018-10-18T04:24:24.072Z,93.00
2018-10-18T04:26:51.638Z,93.00
2018-10-18T04:29:19.283Z,92.90
2018-10-18T04:31:46.971Z,93.00
2018-10-18T04:34:14.615Z,93.10
2018-10-18T04:36:42.255Z,93.20
2018-10-18T04:39:11.729Z,93.10
2018-10-18T04:41:39.408Z,93.30
2018-10-18T04:44:07.110Z,93.20
2018-10-18T04:46:34.742Z,93.40
2018-10-18T04:49:02.347Z,93.50
2018-10-18T04:51:29.950Z,93.40
2018-10-18T04:53:57.511Z,93.30
2018-10-18T04:56:25.492Z,93.60
2018-10-18T04:58:53.035Z,93.50
2018-10-18T05:01:20.900Z,93.40
2018-10-18T05:03:48.310Z,93.10
2018-10-18T05:06:15.909Z,93.20
2018-10-18T05:08:43.590Z,93.00
2018-10-18T05:11:11.212Z,93.00
2018-10-18T05:13:38.807Z,92.90
2018-10-18T05:16:06.444Z,93.00
2018-10-18T05:18:34.054Z,92.90
2018-10-18T05:21:01.724Z,92.80
2018-10-18T05:23:29.355Z,93.00
2018-10-18T05:25:57.041Z,92.90
2018-10-18T05:28:24.713Z,92.80
2018-10-18T05:30:52.322Z,92.90
2018-10-18T05:33:19.942Z,93.00
2018-10-18T05:35:47.546Z,93.00
2018-10-18T05:38:15.367Z,93.20
2018-10-18T05:40:43.055Z,93.20
2018-10-18T05:43:10.811Z,93.40
2018-10-18T05:45:38.367Z,93.40
2018-10-18T05:48:06.038Z,93.40
2018-10-18T05:50:33.597Z,93.50
2018-10-18T05:53:01.278Z,93.90
2018-10-18T05:55:28.905Z,93.90
2018-10-18T05:57:56.468Z,94.00
2018-10-18T06:00:24.345Z,93.70
2018-10-18T06:02:52.000Z,93.90
2018-10-18T06:05:19.720Z,93.90
2018-10-18T06:07:47.368Z,93.90
2018-10-18T06:10:26.864Z,94.00
2018-10-18T06:12:54.545Z,94.10
2018-10-18T06:15:22.647Z,93.90
2018-10-18T06:17:50.284Z,93.90
2018-10-18T06:20:18.432Z,94.00
2018-10-18T06:22:46.062Z,94.00
2018-10-18T06:25:13.756Z,93.70
2018-10-18T06:27:41.361Z,93.90
2018-10-18T06:30:11.187Z,94.10
2018-10-18T06:32:38.791Z,94.10
2018-10-18T06:35:07.600Z,94.30
2018-10-18T06:37:35.479Z,94.10
2018-10-18T06:40:03.487Z,94.20
2018-10-18T06:42:31.112Z,94.00
2018-10-18T06:44:58.770Z,93.90
2018-10-18T06:47:26.588Z,93.80
2018-10-18T06:49:54.365Z,93.50
2018-10-18T06:52:22.231Z,93.50
2018-10-18T06:54:49.911Z,93.30
2018-10-18T06:57:17.534Z,93.30
2018-10-18T06:59:45.140Z,93.00
2018-10-18T07:02:12.794Z,93.00
2018-10-18T07:04:40.471Z,92.80
2018-10-18T07:07:08.083Z,92.40
2018-10-18T07:09:35.751Z,92.30
2018-10-18T07:12:03.621Z,92.00
2018-10-18T07:14:31.263Z,91.60
2018-10-18T07:16:58.898Z,91.10
2018-10-18T07:19:26.548Z,90.80
2018-10-18T07:21:54.152Z,90.60
2018-10-18T07:24:21.777Z,89.20
2018-10-18T07:26:49.504Z,82.90
2018-10-18T07:29:17.168Z,76.30
2018-10-18T07:31:44.755Z,71.00
2018-10-18T07:34:12.367Z,67.80
2018-10-18T07:36:40.071Z,62.20
2018-10-18T07:39:10.027Z,58.40
2018-10-18T07:41:37.651Z,56.10
2018-10-18T07:44:05.347Z,54.10
2018-10-18T07:46:33.021Z,53.60
2018-10-18T07:49:00.630Z,54.10
2018-10-18T07:51:28.371Z,53.00
2018-10-18T07:53:56.134Z,52.60
2018-10-18T07:56:23.755Z,50.60
2018-10-18T07:58:51.382Z,50.10
2018-10-18T08:01:19.080Z,49.70
2018-10-18T08:03:46.731Z,49.10
2018-10-18T08:06:14.434Z,48.00
2018-10-18T08:08:42.031Z,47.90
2018-10-18T08:11:09.729Z,47.30
2018-10-18T08:13:37.418Z,47.60
2018-10-18T08:16:05.307Z,48.50
2018-10-18T08:18:32.963Z,47.60
2018-10-18T08:21:00.551Z,47.50
2018-10-18T08:23:28.223Z,47.50
2018-10-18T08:25:55.879Z,47.10
2018-10-18T08:28:23.534Z,46.20
2018-10-18T08:30:53.951Z,45.70
2018-10-18T08:33:22.829Z,45.60
2018-10-18T08:35:50.512Z,46.90
2018-10-18T08:38:19.127Z,47.10
2018-10-18T08:40:46.706Z,45.50
2018-10-18T08:43:14.402Z,45.20
2018-10-18T08:45:42.141Z,45.50
2018-10-18T08:48:09.766Z,44.90
2018-10-18T08:50:37.419Z,45.30
2018-10-18T08:53:05.271Z,45.60
2018-10-18T08:55:32.984Z,44.40
2018-10-18T08:58:00.570Z,43.30
2018-10-18T09:00:28.275Z,43.20
2018-10-18T09:02:55.983Z,42.50
2018-10-18T09:05:23.693Z,42.80
2018-10-18T09:07:51.483Z,42.70
2018-10-18T09:10:19.154Z,42.50
2018-10-18T09:12:46.758Z,43.40
2018-10-18T09:15:14.411Z,44.10
2018-10-18T09:17:42.094Z,44.20
2018-10-18T09:20:09.737Z,44.30
2018-10-18T09:22:37.444Z,43.00
2018-10-18T09:25:06.037Z,43.50
2018-10-18T09:27:33.690Z,42.80
2018-10-18T09:30:01.324Z,41.70
2018-10-18T09:32:29.095Z,42.30
2018-10-18T09:34:56.694Z,42.40
2018-10-18T09:37:24.378Z,42.00
2018-10-18T09:39:52.032Z,41.70
2018-10-18T09:42:19.791Z,41.70
2018-10-18T09:44:47.452Z,42.00
2018-10-18T09:47:15.202Z,41.10
2018-10-18T09:49:42.807Z,40.80
2018-10-18T09:52:10.739Z,40.30
2018-10-18T09:54:38.407Z,40.60
2018-10-18T09:57:06.023Z,40.10
2018-10-18T09:59:33.639Z,39.00
2018-10-18T10:02:06.865Z,38.20
2018-10-18T10:04:34.548Z,37.80
2018-10-18T10:07:02.234Z,38.10
2018-10-18T10:09:29.843Z,37.70
2018-10-18T10:11:57.531Z,36.90
2018-10-18T10:14:25.175Z,37.20
2018-10-18T10:16:52.857Z,37.10
2018-10-18T10:19:20.891Z,36.90
2018-10-18T10:21:48.551Z,36.80
2018-10-18T10:24:16.199Z,36.20
2018-10-18T10:26:43.846Z,35.30
2018-10-18T10:29:11.655Z,34.70
2018-10-18T10:31:39.331Z,34.30
2018-10-18T10:34:06.963Z,34.20
2018-10-18T10:36:34.639Z,34.20
2018-10-18T10:39:02.321Z,34.90
2018-10-18T10:41:29.898Z,35.20
2018-10-18T10:43:57.600Z,35.20
2018-10-18T10:46:25.247Z,35.00
2018-10-18T10:48:52.859Z,35.40
2018-10-18T10:51:20.462Z,35.10
2018-10-18T10:53:48.149Z,34.30
2018-10-18T10:56:15.886Z,33.60
2018-10-18T10:58:43.500Z,33.40
2018-10-18T11:01:19.671Z,33.80
2018-10-18T11:03:47.959Z,33.90
2018-10-18T11:06:15.735Z,34.80
2018-10-18T11:08:43.442Z,35.20
2018-10-18T11:11:11.811Z,34.80
2018-10-18T11:13:39.431Z,34.80
2018-10-18T11:16:07.228Z,35.10
2018-10-18T11:18:35.710Z,34.80
2018-10-18T11:21:04.327Z,35.00
2018-10-18T11:23:32.643Z,34.90
2018-10-18T11:26:00.368Z,34.50
2018-10-18T11:28:28.000Z,34.30
2018-10-18T11:30:55.596Z,34.40
2018-10-18T11:33:23.348Z,33.80
2018-10-18T11:35:51.048Z,34.40
2018-10-18T11:38:18.729Z,34.50
2018-10-18T11:40:46.451Z,34.50
2018-10-18T11:43:14.163Z,34.00
2018-10-18T11:45:41.782Z,34.10
2018-10-18T11:48:10.858Z,33.60
2018-10-18T11:50:38.528Z,34.10
2018-10-18T11:53:06.219Z,34.60
2018-10-18T11:55:34.089Z,34.60
2018-10-18T11:58:01.819Z,34.40
2018-10-18T12:00:29.545Z,34.50
2018-10-18T12:02:57.215Z,35.10
2018-10-18T12:05:25.024Z,35.00
2018-10-18T12:07:52.749Z,35.40
2018-10-18T12:10:20.446Z,35.50
2018-10-18T12:12:48.149Z,35.40
2018-10-18T12:15:15.864Z,35.80
2018-10-18T12:17:43.563Z,36.60
2018-10-18T12:20:13.325Z,37.10
2018-10-18T12:22:41.011Z,37.10
2018-10-18T12:25:08.978Z,37.00
2018-10-18T12:27:36.666Z,36.50
2018-10-18T12:30:05.035Z,35.60
2018-10-18T12:32:32.666Z,35.30
2018-10-18T12:35:00.327Z,34.70
2018-10-18T12:37:27.978Z,35.00
2018-10-18T12:39:55.678Z,35.50
2018-10-18T12:42:23.341Z,35.70
2018-10-18T12:44:51.003Z,36.10
2018-10-18T12:47:18.663Z,36.70
2018-10-18T12:49:46.319Z,37.30
2018-10-18T12:52:14.119Z,37.50
2018-10-18T12:54:41.937Z,37.70
2018-10-18T12:57:12.263Z,38.20
2018-10-18T12:59:39.991Z,38.60
2018-10-18T13:02:07.875Z,39.30
2018-10-18T13:04:36.001Z,39.40
2018-10-18T13:07:03.979Z,39.20
2018-10-18T13:09:31.658Z,39.10
2018-10-18T13:11:59.411Z,38.70
2018-10-18T13:14:27.735Z,39.40
2018-10-18T13:16:55.387Z,40.10
2018-10-18T13:19:23.047Z,40.40
2018-10-18T13:21:50.681Z,40.40
2018-10-18T13:24:18.377Z,40.90
2018-10-18T13:26:45.994Z,41.80
2018-10-18T13:29:13.667Z,42.60
2018-10-18T13:31:41.272Z,43.10
2018-10-18T13:34:09.096Z,43.70
2018-10-18T13:36:36.782Z,44.20
2018-10-18T13:39:09.382Z,45.10
2018-10-18T13:41:37.102Z,45.90
2018-10-18T13:44:05.094Z,46.40
2018-10-18T13:46:32.771Z,46.60
2018-10-18T13:49:00.449Z,46.50
2018-10-18T13:51:28.074Z,46.50
2018-10-18T13:53:55.799Z,46.90
2018-10-18T13:56:23.394Z,47.70
2018-10-18T13:58:50.977Z,48.50
2018-10-18T14:01:18.642Z,48.90
2018-10-18T14:03:46.322Z,49.50
2018-10-18T14:06:13.983Z,50.50
2018-10-18T14:08:41.722Z,51.20
2018-10-18T14:11:09.426Z,51.90
2018-10-18T14:13:37.074Z,52.10
2018-10-18T14:16:05.081Z,52.30
2018-10-18T14:18:32.733Z,52.80
2018-10-18T14:21:00.527Z,53.20
2018-10-18T14:23:28.209Z,53.70
2018-10-18T14:25:55.941Z,54.30
2018-10-18T14:28:23.542Z,54.60
2018-10-18T14:30:51.219Z,54.90
2018-10-18T14:33:18.863Z,55.20
2018-10-18T14:35:46.580Z,55.30
2018-10-18T14:38:14.409Z,55.50
2018-10-18T14:40:42.072Z,55.90
2018-10-18T14:43:09.735Z,56.40
2018-10-18T14:45:37.417Z,56.60
2018-10-18T14:48:05.143Z,56.50
2018-10-18T14:50:33.016Z,56.90
2018-10-18T14:53:00.501Z,57.40
2018-10-18T14:55:28.130Z,57.70
2018-10-18T14:57:55.859Z,57.90
2018-10-18T15:00:23.624Z,58.20
2018-10-18T15:02:51.262Z,58.60
2018-10-18T15:05:19.003Z,58.90
2018-10-18T15:07:46.595Z,59.20
2018-10-18T15:10:14.454Z,59.40
2018-10-18T15:12:42.377Z,59.40
2018-10-18T15:15:11.104Z,59.50
2018-10-18T15:17:38.891Z,59.80
2018-10-18T15:20:07.287Z,60.20
2018-10-18T15:22:34.946Z,60.40
2018-10-18T15:25:02.695Z,61.00
2018-10-18T15:27:30.437Z,61.60
2018-10-18T15:29:57.976Z,62.30
2018-10-18T15:32:25.758Z,62.80
2018-10-18T15:34:53.310Z,63.30
2018-10-18T15:37:21.091Z,63.60
2018-10-18T15:39:48.771Z,64.10
2018-10-18T15:42:16.419Z,64.70
2018-10-18T15:44:43.972Z,66.20
2018-10-18T15:47:11.757Z,65.80
2018-10-18T15:49:39.306Z,65.90
2018-10-18T15:52:06.993Z,66.70
2018-10-18T15:54:34.729Z,67.20
2018-10-18T15:57:02.389Z,68.10
2018-10-18T15:59:30.039Z,68.70
2018-10-18T16:01:57.683Z,69.20
2018-10-18T16:04:25.369Z,70.20
2018-10-18T16:06:52.999Z,71.00
2018-10-18T16:09:20.578Z,72.10
2018-10-18T16:11:48.194Z,72.60
2018-10-18T16:14:15.826Z,73.20
2018-10-18T16:16:43.416Z,73.50
2018-10-18T16:19:10.997Z,74.70
2018-10-18T16:21:38.655Z,74.90
2018-10-18T16:24:06.347Z,75.30
2018-10-18T16:26:34.018Z,75.90
2018-10-18T16:29:01.703Z,76.00
2018-10-18T16:31:29.286Z,76.60
2018-10-18T16:33:57.101Z,76.90
2018-10-18T16:36:24.651Z,77.20
2018-10-18T16:38:52.407Z,77.50
2018-10-18T16:41:20.234Z,77.30
2018-10-18T16:43:47.744Z,77.60
2018-10-18T16:46:15.454Z,78.00
2018-10-18T16:48:43.071Z,78.20
2018-10-18T16:51:10.747Z,78.80
2018-10-18T16:53:38.364Z,78.80
2018-10-18T16:56:06.065Z,79.30
2018-10-18T16:58:33.734Z,79.00
2018-10-18T17:01:01.495Z,79.40
2018-10-18T17:03:29.240Z,79.80
2018-10-18T17:05:56.899Z,79.80
2018-10-18T17:08:24.591Z,80.30
2018-10-18T17:10:52.215Z,80.30
2018-10-18T17:13:19.929Z,80.60
2018-10-18T17:15:47.516Z,80.40
2018-10-18T17:18:15.195Z,81.00
2018-10-18T17:20:42.925Z,80.90
2018-10-18T17:23:10.622Z,81.10
2018-10-18T17:25:38.295Z,81.10
2018-10-18T17:28:05.978Z,81.40
2018-10-18T17:30:33.702Z,82.60
2018-10-18T17:33:01.340Z,81.70
2018-10-18T17:35:29.005Z,82.00
2018-10-18T17:37:56.643Z,81.90
2018-10-18T17:40:24.289Z,82.20
2018-10-18T17:42:51.956Z,82.40
2018-10-18T17:45:19.612Z,82.20
2018-10-18T17:47:47.316Z,82.90
2018-10-18T17:50:15.019Z,82.80
2018-10-18T17:52:42.813Z,82.70
2018-10-18T17:55:10.487Z,82.90
2018-10-18T17:57:38.520Z,83.10
2018-10-18T18:00:09.332Z,83.30
2018-10-18T18:02:37.031Z,83.10
2018-10-18T18:05:05.105Z,83.00
2018-10-18T18:07:32.788Z,83.70
2018-10-18T18:10:00.457Z,84.30
2018-10-18T18:12:28.184Z,84.30
2018-10-18T18:14:55.904Z,84.20
2018-10-18T18:17:23.527Z,84.60
2018-10-18T18:19:51.146Z,84.50
2018-10-18T18:22:18.823Z,84.40
2018-10-18T18:24:46.469Z,84.40
2018-10-18T18:27:14.176Z,85.00
2018-10-18T18:29:42.279Z,84.80
2018-10-18T18:32:09.899Z,84.80
2018-10-18T18:34:37.601Z,85.10
2018-10-18T18:37:05.331Z,85.30
2018-10-18T18:39:32.951Z,85.40
2018-10-18T18:42:00.603Z,85.50
2018-10-18T18:44:28.404Z,85.80
2018-10-18T18:46:56.028Z,85.50
2018-10-18T18:49:23.687Z,86.20
2018-10-18T18:51:51.388Z,85.80
2018-10-18T18:54:19.041Z,86.10
2018-10-18T18:56:46.805Z,86.60
2018-10-18T18:59:14.459Z,86.60
2018-10-18T19:01:42.131Z,86.60
2018-10-18T19:04:09.735Z,86.70
2018-10-18T19:06:37.370Z,86.90
2018-10-18T19:09:06.804Z,87.20
2018-10-18T19:11:34.379Z,87.10
2018-10-18T19:14:02.029Z,87.50
2018-10-18T19:16:29.639Z,87.50
2018-10-18T19:18:57.291Z,87.80
2018-10-18T19:21:24.972Z,87.70
2018-10-18T19:23:52.616Z,87.90
2018-10-18T19:26:20.302Z,87.90
2018-10-18T19:28:48.071Z,87.90
2018-10-18T19:31:15.610Z,88.40
2018-10-18T19:33:43.263Z,88.30
2018-10-18T19:36:10.857Z,88.90
2018-10-18T19:38:38.499Z,88.90
2018-10-18T19:41:06.274Z,88.60
2018-10-18T19:43:34.715Z,89.30
2018-10-18T19:46:02.481Z,89.10
2018-10-18T19:48:30.027Z,89.00
2018-10-18T19:50:57.668Z,88.90
2018-10-18T19:53:25.251Z,89.20
2018-10-18T19:55:52.874Z,89.00
2018-10-18T19:58:20.504Z,89.10
2018-10-18T20:00:48.215Z,89.60
2018-10-18T20:03:15.956Z,89.10
2018-10-18T20:05:43.637Z,89.40
2018-10-18T20:08:11.356Z,89.40
2018-10-18T20:10:38.948Z,89.40
2018-10-18T20:13:06.785Z,89.70
2018-10-18T20:15:34.435Z,89.70
2018-10-18T20:18:02.103Z,89.10
2018-10-18T20:20:29.718Z,89.70
2018-10-18T20:22:57.314Z,89.60
2018-10-18T20:25:24.949Z,89.40
2018-10-18T20:27:52.623Z,89.70
2018-10-18T20:30:20.259Z,89.90
2018-10-18T20:32:47.936Z,89.90
2018-10-18T20:35:15.683Z,90.00
2018-10-18T20:37:43.379Z,90.20
2018-10-18T20:40:12.983Z,90.00
2018-10-18T20:42:40.991Z,90.00
2018-10-18T20:45:13.263Z,90.20
2018-10-18T20:47:41.104Z,90.20
2018-10-18T20:50:09.651Z,90.20
2018-10-18T20:52:37.362Z,90.20
2018-10-18T20:55:06.152Z,90.10
2018-10-18T20:57:33.756Z,90.30
2018-10-18T21:00:01.465Z,90.20
2018-10-18T21:02:29.039Z,90.10
2018-10-18T21:04:56.805Z,90.30
2018-10-18T21:07:24.443Z,90.30
2018-10-18T21:09:52.089Z,90.30
2018-10-18T21:12:19.755Z,90.40
2018-10-18T21:14:47.359Z,90.30
2018-10-18T21:17:15.163Z,90.30
2018-10-18T21:19:42.923Z,90.40
2018-10-18T21:22:10.567Z,90.20
2018-10-18T21:24:38.203Z,90.20
2018-10-18T21:27:05.841Z,90.30
2018-10-18T21:29:33.588Z,90.20
2018-10-18T21:32:01.315Z,90.20
2018-10-18T21:34:28.947Z,90.50
2018-10-18T21:36:56.578Z,90.60
2018-10-18T21:39:28.775Z,90.90
2018-10-18T21:41:56.404Z,91.20
2018-10-18T21:44:25.618Z,91.30
2018-10-18T21:46:53.741Z,91.20
2018-10-18T21:49:21.405Z,91.20
2018-10-18T21:51:49.075Z,91.20
2018-10-18T21:54:16.728Z,91.30
2018-10-18T21:56:44.463Z,91.10
2018-10-18T21:59:12.029Z,91.10
2018-10-18T22:01:39.695Z,91.30
2018-10-18T22:04:07.296Z,91.30
2018-10-18T22:06:34.876Z,91.20
2018-10-18T22:09:02.750Z,91.40
2018-10-18T22:11:30.363Z,91.50
2018-10-18T22:13:57.971Z,91.90
2018-10-18T22:16:25.592Z,92.00
2018-10-18T22:18:53.121Z,92.10
2018-10-18T22:21:20.805Z,92.00
2018-10-18T22:23:48.482Z,92.30
2018-10-18T22:26:16.135Z,92.30
2018-10-18T22:28:43.787Z,92.20
2018-10-18T22:31:11.537Z,92.40
2018-10-18T22:33:39.200Z,92.30
2018-10-18T22:36:06.871Z,92.40
2018-10-18T22:38:34.555Z,92.50
2018-10-18T22:41:02.335Z,92.50
2018-10-18T22:43:29.931Z,92.60
2018-10-18T22:45:58.408Z,92.80
2018-10-18T22:48:26.338Z,92.70
2018-10-18T22:50:54.233Z,92.50
2018-10-18T22:53:21.804Z,92.90
2018-10-18T22:55:49.480Z,92.70
2018-10-18T22:58:17.066Z,92.80
2018-10-18T23:00:47.932Z,92.70
2018-10-18T23:03:16.608Z,92.80
2018-10-18T23:05:44.295Z,92.60
2018-10-18T23:08:12.070Z,92.80
2018-10-18T23:10:39.731Z,92.70
2018-10-18T23:13:07.559Z,92.70
2018-10-18T23:15:35.289Z,92.60
2018-10-18T23:18:02.961Z,92.90
2018-10-18T23:20:30.510Z,93.00
2018-10-18T23:22:58.148Z,92.90
2018-10-18T23:25:25.755Z,92.90
2018-10-18T23:27:53.371Z,92.80
2018-10-18T23:30:20.968Z,92.90
2018-10-18T23:32:48.617Z,92.90
2018-10-18T23:35:16.307Z,93.00
2018-10-18T23:37:43.847Z,93.20
2018-10-18T23:40:11.463Z,92.80
2018-10-18T23:42:39.110Z,92.80
2018-10-18T23:45:07.351Z,92.70
2018-10-18T23:47:35.046Z,92.80
2018-10-18T23:50:02.882Z,92.80
